Airfield :
LOGIN :

Register | Disclaimer

   EN    FR    IT 

 










Legend :    VFR   Marginal VFR   IFR   Intensive IFR   Very Intensive IFR
Visi :
Ceiling :
>= 8 km
>= 3000ft
5 to 8 km
1000 to 3000 ft
1500m to 5 km
500 to 1000 ft
800 to 1500m
200 to 500 ft
< 800m
< 200 ft
Symbols :   Thunderstorms  Fog  Heavy snow  Heavy precipitations  Wind > 20 kt
SIGMETs :     Misc.  Thunderstorms  Icing  Turbulence  Mountain Waves  Volcanic Ashes






- Airport Elevation : 659 ft
- IATA code : LGG


EBLG - Liège

CURRENT METAR :
  • 020950Z 18008KT 140V230 CAVOK 21/07 Q1022 NOSIG

EXPIRED METARs :
  • 020920Z 18010KT CAVOK 21/07 Q1022 NOSIG
  • 020850Z 19009KT 120V220 CAVOK 20/08 Q1022 NOSIG
  • 020820Z 19008KT 160V220 CAVOK 20/09 Q1023 NOSIG
  • 012150Z 22003KT CAVOK 16/08 Q1022 NOSIG
  • 020750Z 17007KT CAVOK 19/09 Q1023 NOSIG

TAF TAF EBLG
Valid from the 02 at 06:00 until the 03 at 12:00 UTC


020501Z 0206/0312 20008KT 9999 FEW045
BECMG 0310/0312 27010KT



MET'MAP, your aeronautical weather chart ! - Copyright ORBIFLY December 2007 - Disclaimer

ORBIFLY MET'MAP TEAM :

Programming & Development : Alexandra Zaïnal
Original concept : Baudouin d'Aumeries
Technical & hardware support : Manuel Goepfert
Assistance : Marc-Olivier Méhu




SOURCES & CREDITS :

   NOAA